Time;durP1;ratioP1;P1;durP2;ratioP2;P2;SDS_P1;SDS_P2;PMS_P1;PMS_P2;Temp;Humidity;BMP_temperature;BMP_pressure;BME280_temperature;BME280_humidity;BME280_pressure;Samples;Min_cycle;Max_cycle;Signal;HPM_P1;HPM_P2
2022/10/26 00:00:35;;;;;;;15.60;11.27;;;9.20;99.90;;;;;;4826994;29;89299;-31
2022/10/26 00:03:01;;;;;;;19.73;11.93;;;9.20;99.90;;;;;;4826573;29;90399;-29
2022/10/26 00:05:26;;;;;;;15.65;11.23;;;9.20;99.90;;;;;;4826988;29;89187;-31
2022/10/26 00:07:52;;;;;;;14.93;11.40;;;9.20;99.90;;;;;;4826699;29;90188;-30
2022/10/26 00:10:20;;;;;;;18.00;11.20;;;9.30;99.90;;;;;;4826973;29;89504;-30
2022/10/26 00:12:50;;;;;;;15.93;12.20;;;9.30;99.90;;;;;;4826897;29;89574;-30
2022/10/26 00:15:17;;;;;;;18.25;12.23;;;9.30;99.90;;;;;;4826874;29;89988;-28
2022/10/26 00:17:43;;;;;;;12.70;10.32;;;9.30;99.90;;;;;;4827560;29;89563;-30
2022/10/26 00:20:09;;;;;;;17.00;12.10;;;9.30;99.90;;;;;;4826839;29;88031;-31
2022/10/26 00:22:35;;;;;;;21.25;12.07;;;9.30;99.90;;;;;;4824829;29;90448;-32
2022/10/26 00:25:00;;;;;;;14.25;10.95;;;9.30;99.90;;;;;;4826097;29;90060;-29
2022/10/26 00:27:26;;;;;;;14.18;12.70;;;9.30;99.90;;;;;;4826256;29;90450;-31
2022/10/26 00:29:51;;;;;;;11.93;10.30;;;9.30;99.90;;;;;;4825940;29;89494;-29
2022/10/26 00:32:17;;;;;;;18.52;13.48;;;9.20;99.90;;;;;;4826701;29;90018;-31
2022/10/26 00:34:42;;;;;;;14.68;13.05;;;9.20;99.90;;;;;;4826346;29;89787;-32
2022/10/26 00:37:08;;;;;;;15.93;11.57;;;9.20;99.90;;;;;;4826538;29;89720;-29
2022/10/26 00:39:34;;;;;;;17.13;13.88;;;9.20;99.90;;;;;;4826557;29;89347;-32
2022/10/26 00:41:59;;;;;;;17.10;12.38;;;9.20;99.90;;;;;;4826684;29;90271;-30
2022/10/26 00:44:47;;;;;;;18.20;13.43;;;9.20;99.90;;;;;;4826411;29;89478;-30
2022/10/26 00:47:34;;;;;;;20.50;15.90;;;9.20;99.90;;;;;;4826710;29;89355;-29
2022/10/26 00:50:08;;;;;;;22.67;14.82;;;9.20;99.90;;;;;;4827463;29;89343;-28
2022/10/26 00:52:34;;;;;;;21.75;14.32;;;9.20;99.90;;;;;;4826882;29;90203;-30
2022/10/26 00:54:59;;;;;;;22.08;14.80;;;9.30;99.90;;;;;;4826475;29;90329;-28
2022/10/26 00:57:26;;;;;;;14.75;13.23;;;9.30;99.90;;;;;;4825054;29;90007;-29
2022/10/26 00:59:54;;;;;;;20.02;15.82;;;9.30;99.90;;;;;;4826092;29;88234;-29
2022/10/26 01:02:20;;;;;;;;;;;9.30;99.90;;;;;;4810479;29;90529;-32
2022/10/26 01:04:46;;;;;;;18.33;14.50;;;9.30;99.90;;;;;;4827786;29;89572;-30
2022/10/26 01:07:13;;;;;;;20.40;15.63;;;9.30;99.90;;;;;;4826207;29;89558;-31
2022/10/26 01:09:38;;;;;;;19.60;15.52;;;9.30;99.90;;;;;;4826705;29;89173;-33
2022/10/26 01:12:04;;;;;;;15.88;14.20;;;9.30;99.90;;;;;;4825917;29;90268;-28
2022/10/26 01:14:31;;;;;;;21.85;15.43;;;9.20;99.90;;;;;;4824861;29;90853;-32
2022/10/26 01:17:05;;;;;;;18.35;14.43;;;9.20;99.90;;;;;;4826240;29;91062;-27
2022/10/26 01:19:50;;;;;;;17.92;15.77;;;9.20;99.90;;;;;;4826098;29;87633;-30
2022/10/26 01:22:41;;;;;;;16.55;12.77;;;9.20;99.90;;;;;;4826508;29;90284;-31
2022/10/26 01:25:34;;;;;;;25.55;15.15;;;9.20;99.90;;;;;;4825394;29;90055;-30
2022/10/26 01:28:05;;;;;;;18.98;15.25;;;9.20;99.90;;;;;;4825959;29;89530;-31
2022/10/26 01:30:37;;;;;;;18.42;16.42;;;9.20;99.90;;;;;;4826346;29;88442;-29
2022/10/26 01:33:24;;;;;;;18.45;15.88;;;9.20;99.90;;;;;;4825903;29;90432;-29
2022/10/26 01:36:07;;;;;;;24.80;16.73;;;9.20;99.90;;;;;;4825296;29;90564;-32
2022/10/26 01:38:49;;;;;;;17.27;15.43;;;9.20;99.90;;;;;;4825540;29;90812;-28
2022/10/26 01:41:31;;;;;;;20.73;15.75;;;9.20;99.90;;;;;;4825871;29;90446;-29
2022/10/26 01:44:16;;;;;;;17.35;15.55;;;9.30;99.90;;;;;;4825734;29;90130;-33
2022/10/26 01:46:46;;;;;;;18.60;15.77;;;9.20;99.90;;;;;;4825820;29;89730;-29
2022/10/26 01:49:14;;;;;;;16.92;15.15;;;9.20;99.90;;;;;;4825869;29;89469;-30
2022/10/26 01:51:42;;;;;;;17.90;14.38;;;9.30;99.90;;;;;;4825782;29;89826;-28
2022/10/26 01:54:08;;;;;;;23.42;16.60;;;9.20;99.90;;;;;;4825424;29;91918;-29
2022/10/26 01:56:37;;;;;;;19.52;15.88;;;9.20;99.90;;;;;;4826008;29;89991;-27
2022/10/26 01:59:34;;;;;;;20.58;16.10;;;9.20;99.90;;;;;;4825558;29;89831;-30
2022/10/26 02:02:33;;;;;;;18.17;15.65;;;9.20;99.90;;;;;;4816464;29;88650;-28
2022/10/26 02:05:30;;;;;;;19.85;16.25;;;9.20;99.90;;;;;;4816799;29;89285;-28
2022/10/26 02:08:33;;;;;;;18.35;16.35;;;9.20;99.90;;;;;;4824474;29;90653;-30
2022/10/26 02:11:29;;;;;;;24.80;16.40;;;9.20;99.90;;;;;;4825548;29;90348;-29
2022/10/26 02:14:02;;;;;;;19.70;16.45;;;9.20;99.90;;;;;;4816882;29;89356;-28
2022/10/26 02:16:42;;;;;;;18.00;15.85;;;9.10;99.90;;;;;;4825379;29;90271;-28
2022/10/26 02:19:29;;;;;;;21.05;17.00;;;9.10;99.90;;;;;;4809225;29;90573;-29
2022/10/26 02:22:05;;;;;;;22.25;17.30;;;9.10;99.90;;;;;;4825288;29;92022;-30
2022/10/26 02:24:33;;;;;;;22.77;18.38;;;9.10;99.90;;;;;;4824924;29;88454;-28
2022/10/26 02:27:01;;;;;;;24.33;17.03;;;9.10;99.90;;;;;;4824320;29;88888;-29
2022/10/26 02:29:28;;;;;;;25.53;17.60;;;9.10;99.90;;;;;;4825410;29;90067;-32
2022/10/26 02:31:55;;;;;;;20.87;17.63;;;9.10;99.90;;;;;;4824931;29;89274;-28
2022/10/26 02:34:25;;;;;;;21.20;18.88;;;9.00;99.90;;;;;;4824683;29;89766;-29
2022/10/26 02:36:54;;;;;;;23.67;17.10;;;9.10;99.90;;;;;;4825124;29;90448;-27
2022/10/26 02:39:20;;;;;;;22.75;17.83;;;9.00;99.90;;;;;;4824702;29;90278;-30
2022/10/26 02:41:47;;;;;;;18.42;16.50;;;9.00;99.90;;;;;;4824335;29;89991;-33
2022/10/26 02:44:29;;;;;;;27.00;17.15;;;9.00;99.90;;;;;;4825807;29;89362;-31
2022/10/26 02:46:55;;;;;;;32.15;18.58;;;9.00;99.90;;;;;;4824009;29;90100;-30
2022/10/26 02:49:21;;;;;;;21.92;17.70;;;9.00;99.90;;;;;;4825765;29;89645;-28
2022/10/26 02:52:27;;;;;;;21.48;17.75;;;9.00;99.90;;;;;;4823975;29;89034;-30
2022/10/26 02:55:04;;;;;;;22.38;16.95;;;9.00;99.90;;;;;;4824686;29;89525;-31
2022/10/26 02:57:33;;;;;;;30.05;18.15;;;9.10;99.90;;;;;;4824959;29;90968;-29
2022/10/26 02:59:59;;;;;;;26.17;19.80;;;9.00;99.90;;;;;;4824180;29;89440;-32
2022/10/26 03:02:26;;;;;;;21.88;19.58;;;9.00;99.90;;;;;;4825436;29;90671;-28
2022/10/26 03:04:52;;;;;;;21.02;17.00;;;9.00;99.90;;;;;;4823942;29;89464;-31
2022/10/26 03:07:25;;;;;;;27.25;20.05;;;9.00;99.90;;;;;;4825042;29;90762;-29
2022/10/26 03:09:50;;;;;;;25.52;20.00;;;9.00;99.90;;;;;;4824473;29;90026;-31
2022/10/26 03:12:16;;;;;;;28.15;20.85;;;9.10;99.90;;;;;;4825224;29;90246;-33
2022/10/26 03:14:42;;;;;;;23.67;19.13;;;9.10;99.90;;;;;;4823989;29;89412;-29
2022/10/26 03:17:08;;;;;;;29.60;21.27;;;9.10;99.90;;;;;;4824823;29;90428;-30
2022/10/26 03:19:33;;;;;;;29.40;21.30;;;9.00;99.90;;;;;;4824419;29;90440;-29
2022/10/26 03:21:59;;;;;;;26.77;20.05;;;9.00;99.90;;;;;;4824714;29;89625;-29
2022/10/26 03:24:24;;;;;;;27.60;20.42;;;9.10;99.90;;;;;;4808498;29;89412;-32
2022/10/26 03:26:50;;;;;;;24.10;18.70;;;9.00;99.90;;;;;;4823654;29;90360;-31
2022/10/26 03:29:15;;;;;;;25.95;19.95;;;9.00;99.90;;;;;;4824725;29;89755;-30
2022/10/26 03:31:41;;;;;;;23.95;20.38;;;9.00;99.90;;;;;;4823889;29;90047;-29
2022/10/26 03:34:06;;;;;;;24.55;20.02;;;9.00;99.90;;;;;;4824141;29;88863;-30
2022/10/26 03:36:32;;;;;;;31.15;21.38;;;9.00;99.90;;;;;;4824707;29;90384;-30
2022/10/26 03:38:58;;;;;;;24.00;20.92;;;9.10;99.90;;;;;;4824020;29;90093;-30
2022/10/26 03:41:24;;;;;;;23.52;19.80;;;9.00;99.90;;;;;;4824740;29;89530;-32
2022/10/26 03:43:49;;;;;;;26.35;22.17;;;9.10;99.90;;;;;;4823979;29;89229;-29
2022/10/26 03:46:15;;;;;;;25.08;20.77;;;9.10;99.90;;;;;;4824443;29;90433;-28
2022/10/26 03:48:40;;;;;;;24.23;21.60;;;9.10;99.90;;;;;;4824171;29;92099;-28
2022/10/26 03:51:06;;;;;;;27.02;21.13;;;9.10;99.90;;;;;;4823419;29;90855;-29
2022/10/26 03:53:31;;;;;;;26.73;22.05;;;9.10;99.90;;;;;;4824564;29;88221;-29
2022/10/26 03:55:57;;;;;;;26.35;22.05;;;9.00;99.90;;;;;;4823691;29;90224;-28
2022/10/26 03:58:23;;;;;;;30.30;20.75;;;9.10;99.90;;;;;;4824664;29;90233;-31
2022/10/26 04:00:48;;;;;;;26.30;21.52;;;9.00;99.90;;;;;;4823169;29;89668;-30
2022/10/26 04:03:14;;;;;;;26.92;21.23;;;9.00;99.90;;;;;;4824366;29;88918;-32
2022/10/26 04:05:39;;;;;;;25.92;20.92;;;9.00;99.90;;;;;;4826449;29;88491;-33
2022/10/26 04:08:05;;;;;;;27.77;20.95;;;8.90;99.90;;;;;;4827268;29;89316;-30
2022/10/26 04:10:31;;;;;;;26.23;22.30;;;9.00;99.90;;;;;;4826961;29;90719;-30
2022/10/26 04:13:00;;;;;;;27.67;20.73;;;9.00;99.90;;;;;;4826422;29;90631;-27
2022/10/26 04:15:26;;;;;;;24.83;20.75;;;9.00;99.90;;;;;;4826975;29;89366;-34
2022/10/26 04:17:57;;;;;;;22.17;19.80;;;9.00;99.90;;;;;;4826969;29;92124;-29
2022/10/26 04:20:23;;;;;;;29.75;20.83;;;9.00;99.90;;;;;;4827062;29;88937;-30
2022/10/26 04:22:59;;;;;;;32.95;22.90;;;8.90;99.90;;;;;;4826973;29;90216;-29
2022/10/26 04:25:24;;;;;;;26.58;19.55;;;8.90;99.90;;;;;;4826572;29;90059;-27
2022/10/26 04:27:50;;;;;;;23.25;19.30;;;8.90;99.90;;;;;;4827080;29;89327;-31
2022/10/26 04:30:16;;;;;;;23.90;19.52;;;8.90;99.90;;;;;;4827046;29;89012;-32
2022/10/26 04:32:41;;;;;;;30.65;21.38;;;8.90;99.90;;;;;;4826949;29;88408;-29
2022/10/26 04:35:07;;;;;;;27.25;21.23;;;8.90;99.90;;;;;;4856877;23;90808;-28
2022/10/26 04:37:33;;;;;;;25.65;20.55;;;8.90;99.90;;;;;;4826359;29;91138;-27
2022/10/26 04:39:58;;;;;;;24.67;19.95;;;8.90;99.90;;;;;;4826860;29;89879;-28
2022/10/26 04:42:24;;;;;;;25.90;22.15;;;8.90;99.90;;;;;;4827305;29;88303;-29
2022/10/26 04:44:49;;;;;;;28.27;21.77;;;8.90;99.90;;;;;;4826813;29;90230;-27
2022/10/26 04:47:15;;;;;;;33.00;23.67;;;8.90;99.90;;;;;;4826500;29;89858;-30
2022/10/26 04:49:40;;;;;;;29.77;21.27;;;8.90;99.90;;;;;;4827035;29;89227;-29
2022/10/26 04:52:06;;;;;;;22.13;19.10;;;9.00;99.90;;;;;;4826904;29;88197;-30
2022/10/26 04:54:32;;;;;;;26.20;20.92;;;9.00;99.90;;;;;;4827075;29;90168;-30
2022/10/26 04:56:57;;;;;;;27.92;20.55;;;9.00;99.90;;;;;;4826736;29;90980;-28
2022/10/26 04:59:23;;;;;;;37.08;21.67;;;9.00;99.90;;;;;;4826338;29;89579;-29
2022/10/26 05:01:48;;;;;;;26.10;21.55;;;9.10;99.90;;;;;;4826204;29;89712;-30
2022/10/26 05:04:14;;;;;;;21.38;19.17;;;9.10;99.90;;;;;;4825872;29;90258;-30
2022/10/26 05:06:40;;;;;;;23.80;19.65;;;9.10;99.90;;;;;;4826526;29;88436;-29
2022/10/26 05:09:05;;;;;;;28.10;19.63;;;9.10;99.90;;;;;;4826473;29;89762;-29
2022/10/26 05:11:31;;;;;;;31.48;18.70;;;9.20;99.90;;;;;;4826192;29;89311;-31
2022/10/26 05:13:56;;;;;;;27.17;19.35;;;9.20;99.90;;;;;;4825656;29;91572;-28
2022/10/26 05:16:22;;;;;;;23.33;18.42;;;9.20;99.90;;;;;;4822820;29;89910;-28
2022/10/26 05:18:50;;;;;;;24.85;19.08;;;9.20;99.90;;;;;;4820877;29;89641;-31
2022/10/26 05:21:18;;;;;;;26.67;20.33;;;9.20;99.90;;;;;;4824590;29;88553;-29
2022/10/26 05:23:49;;;;;;;26.63;19.30;;;9.30;99.90;;;;;;4825050;29;90789;-30
2022/10/26 05:26:15;;;;;;;21.48;18.40;;;9.20;99.90;;;;;;4824840;29;92224;-30
2022/10/26 05:28:41;;;;;;;29.30;19.67;;;9.30;99.90;;;;;;4825043;29;90626;-27
2022/10/26 05:31:07;;;;;;;27.42;19.33;;;9.30;99.90;;;;;;4826415;29;89959;-30
2022/10/26 05:33:32;;;;;;;24.02;18.15;;;9.30;99.90;;;;;;4825514;29;89911;-28
2022/10/26 05:35:58;;;;;;;23.42;17.55;;;9.30;99.90;;;;;;4825439;29;90837;-28
2022/10/26 05:38:23;;;;;;;24.45;16.80;;;9.30;99.90;;;;;;4825806;29;89732;-30
2022/10/26 05:40:50;;;;;;;21.05;17.00;;;9.40;99.90;;;;;;4825869;29;90236;-29
2022/10/26 05:43:18;;;;;;;21.38;19.08;;;9.40;99.90;;;;;;4826633;29;90784;-29
2022/10/26 05:45:44;;;;;;;19.40;17.50;;;9.40;99.90;;;;;;4825413;29;89915;-29
2022/10/26 05:48:10;;;;;;;25.17;18.95;;;9.40;99.90;;;;;;4825182;29;89940;-27
2022/10/26 05:50:36;;;;;;;28.98;18.10;;;9.40;99.90;;;;;;4827744;29;89422;-30
2022/10/26 05:53:01;;;;;;;20.15;16.83;;;9.40;99.90;;;;;;4825315;29;90408;-27
2022/10/26 05:55:27;;;;;;;25.20;18.40;;;9.50;99.90;;;;;;4823711;29;90039;-32
2022/10/26 05:57:53;;;;;;;22.10;16.33;;;9.50;99.90;;;;;;4822199;29;89769;-29
2022/10/26 06:00:21;;;;;;;28.17;19.23;;;9.50;99.90;;;;;;4823367;29;89302;-31
2022/10/26 06:03:02;;;;;;;25.15;17.73;;;9.50;99.90;;;;;;4822724;29;92536;-30
2022/10/26 06:05:34;;;;;;;18.00;16.20;;;9.60;99.90;;;;;;4822378;29;89772;-30
2022/10/26 06:08:00;;;;;;;21.45;17.38;;;9.60;99.90;;;;;;4821387;29;89602;-31
2022/10/26 06:10:26;;;;;;;24.73;16.10;;;9.60;99.90;;;;;;4819570;29;88510;-28
2022/10/26 06:12:52;;;;;;;21.25;16.08;;;9.60;99.90;;;;;;4816382;29;88731;-30
2022/10/26 06:15:20;;;;;;;19.73;16.50;;;9.60;99.90;;;;;;4803972;29;90936;-28
2022/10/26 06:18:10;;;;;;;21.10;16.35;;;9.60;99.90;;;;;;4810787;29;92022;-32
2022/10/26 06:20:41;;;;;;;20.10;15.88;;;9.60;99.90;;;;;;4818319;29;89107;-30
2022/10/26 06:23:26;;;;;;;21.05;15.50;;;9.60;99.90;;;;;;4821528;29;90756;-30
2022/10/26 06:26:07;;;;;;;16.55;14.85;;;9.60;99.90;;;;;;4818430;29;90070;-31
2022/10/26 06:29:22;;;;;;;20.92;16.63;;;9.60;99.90;;;;;;4819496;29;89579;-27
2022/10/26 06:31:47;;;;;;;20.67;16.20;;;9.60;99.90;;;;;;4804897;29;89479;-29
2022/10/26 06:34:28;;;;;;;18.00;16.13;;;9.60;99.90;;;;;;4822238;29;90260;-32
2022/10/26 06:36:56;;;;;;;16.05;14.38;;;9.60;99.90;;;;;;4822824;29;89477;-31
2022/10/26 06:39:24;;;;;;;23.98;17.20;;;9.70;99.90;;;;;;4823283;29;90115;-30
2022/10/26 06:41:50;;;;;;;21.27;16.25;;;9.70;99.90;;;;;;4822197;29;90350;-29
2022/10/26 06:44:22;;;;;;;20.30;16.13;;;9.70;99.90;;;;;;4821673;29;91244;-29
2022/10/26 06:47:10;;;;;;;18.85;15.07;;;9.70;99.90;;;;;;4822147;29;90053;-30
2022/10/26 06:49:38;;;;;;;18.63;14.13;;;9.70;99.90;;;;;;4814300;29;90146;-27
2022/10/26 06:52:17;;;;;;;17.42;14.98;;;9.80;99.90;;;;;;4824845;29;89634;-27
2022/10/26 06:54:47;;;;;;;;;;;9.80;99.90;;;;;;4822627;29;92225;-28
2022/10/26 06:57:15;;;;;;;23.98;15.30;;;9.80;99.90;;;;;;4824624;29;88800;-27
2022/10/26 07:00:13;;;;;;;16.55;14.00;;;9.80;99.90;;;;;;4822259;29;89613;-29
2022/10/26 07:02:39;;;;;;;18.45;14.30;;;9.80;99.90;;;;;;4806082;29;89516;-31
2022/10/26 07:05:08;;;;;;;17.02;14.30;;;9.90;99.90;;;;;;4822871;29;90810;-32
2022/10/26 07:07:45;;;;;;;18.08;14.35;;;9.90;99.90;;;;;;4822203;29;90445;-32
2022/10/26 07:10:11;;;;;;;15.63;14.00;;;9.90;99.90;;;;;;4822662;29;90738;-30
2022/10/26 07:12:37;;;;;;;14.75;13.20;;;9.90;99.90;;;;;;4821876;29;88900;-29
2022/10/26 07:15:04;;;;;;;14.25;12.80;;;9.90;99.90;;;;;;4822734;29;90450;-31
2022/10/26 07:17:29;;;;;;;17.27;13.15;;;9.90;99.90;;;;;;4822305;29;90593;-28
2022/10/26 07:19:55;;;;;;;24.08;13.27;;;10.00;99.90;;;;;;4822634;29;89706;-32
2022/10/26 07:22:21;;;;;;;18.33;13.10;;;9.90;99.90;;;;;;4822313;29;89794;-28
2022/10/26 07:24:49;;;;;;;14.55;11.98;;;10.00;99.90;;;;;;4821829;29;90246;-31
2022/10/26 07:27:15;;;;;;;17.33;14.13;;;10.00;99.90;;;;;;4822009;29;90612;-31
2022/10/26 07:29:41;;;;;;;15.32;12.50;;;10.00;99.90;;;;;;4822453;29;88000;-28
2022/10/26 07:32:07;;;;;;;16.83;11.70;;;10.00;99.90;;;;;;4821620;29;90114;-30
2022/10/26 07:34:33;;;;;;;19.05;14.20;;;10.00;99.90;;;;;;4821555;29;90330;-27
2022/10/26 07:36:59;;;;;;;16.95;11.85;;;10.10;99.90;;;;;;4820526;29;89512;-32
2022/10/26 07:39:25;;;;;;;15.02;12.50;;;10.10;99.90;;;;;;4814605;29;88786;-28
2022/10/26 07:41:51;;;;;;;18.75;11.98;;;10.10;99.90;;;;;;4825060;29;89199;-29
2022/10/26 07:44:16;;;;;;;16.83;11.23;;;10.30;99.90;;;;;;4823767;29;90702;-29
2022/10/26 07:46:42;;;;;;;14.73;13.20;;;10.40;99.90;;;;;;4805955;29;89973;-31
2022/10/26 07:49:08;;;;;;;13.75;12.23;;;10.40;99.90;;;;;;4822013;29;89458;-30
2022/10/26 07:51:33;;;;;;;16.23;12.68;;;10.60;99.90;;;;;;4807797;29;89189;-30
2022/10/26 07:53:59;;;;;;;14.85;11.82;;;10.80;99.90;;;;;;4824158;29;89842;-30
2022/10/26 07:56:25;;;;;;;17.77;11.43;;;11.00;99.90;;;;;;4816155;29;90538;-32
2022/10/26 07:58:52;;;;;;;21.02;11.70;;;11.10;99.90;;;;;;4824197;29;90811;-29
2022/10/26 08:01:18;;;;;;;13.55;12.25;;;11.30;99.90;;;;;;4816508;29;88702;-28
2022/10/26 08:03:44;;;;;;;17.52;11.13;;;11.40;99.90;;;;;;4823949;29;90731;-33
2022/10/26 08:06:10;;;;;;;15.18;11.57;;;11.50;99.90;;;;;;4824997;29;89608;-28
2022/10/26 08:08:36;;;;;;;18.73;11.07;;;11.70;99.90;;;;;;4824313;29;89366;-28
2022/10/26 08:11:01;;;;;;;12.48;10.65;;;11.90;99.90;;;;;;4824627;29;88321;-29
2022/10/26 08:13:27;;;;;;;10.80;9.68;;;12.00;99.90;;;;;;4811100;29;91218;-30
2022/10/26 08:15:57;;;;;;;15.00;10.63;;;12.10;99.90;;;;;;4825544;29;89616;-29
2022/10/26 08:18:23;;;;;;;15.32;9.52;;;12.00;99.90;;;;;;4824769;29;88503;-32
2022/10/26 08:20:48;;;;;;;19.70;11.48;;;12.00;99.90;;;;;;4825239;29;89947;-30
2022/10/26 08:23:14;;;;;;;17.83;10.40;;;11.90;99.90;;;;;;4824044;29;89308;-27
2022/10/26 08:25:39;;;;;;;10.77;8.35;;;11.80;99.90;;;;;;4824489;29;90198;-32
2022/10/26 08:28:05;;;;;;;15.73;10.77;;;11.90;99.90;;;;;;4824744;29;89985;-30
2022/10/26 08:30:31;;;;;;;13.20;9.35;;;11.90;99.90;;;;;;4824555;29;89390;-33
2022/10/26 08:33:05;;;;;;;9.43;8.50;;;12.00;99.90;;;;;;4825433;29;91460;-28
2022/10/26 08:35:31;;;;;;;15.13;8.18;;;12.10;99.90;;;;;;4824069;29;92049;-29
2022/10/26 08:37:57;;;;;;;8.57;7.45;;;12.20;99.90;;;;;;4825103;29;89524;-30
2022/10/26 08:40:42;;;;;;;12.05;8.88;;;12.40;99.90;;;;;;4824794;29;89089;-27
2022/10/26 08:43:25;;;;;;;10.32;8.18;;;12.50;99.90;;;;;;4808088;29;89338;-31
2022/10/26 08:46:13;;;;;;;10.40;7.85;;;12.70;99.90;;;;;;4823711;29;90300;-31
2022/10/26 08:48:44;;;;;;;9.35;7.90;;;12.80;99.90;;;;;;4824735;29;90733;-31
2022/10/26 08:51:21;;;;;;;9.88;8.88;;;12.90;99.90;;;;;;4824181;29;90183;-29
2022/10/26 08:53:57;;;;;;;10.02;7.15;;;13.10;99.90;;;;;;4824824;29;89143;-28
2022/10/26 08:56:26;;;;;;;12.52;6.63;;;13.30;99.90;;;;;;4824486;29;89468;-32
2022/10/26 08:58:54;;;;;;;9.60;6.32;;;13.30;99.90;;;;;;4824549;29;90424;-29
2022/10/26 09:01:20;;;;;;;8.25;5.85;;;13.30;99.90;;;;;;4808425;29;88411;-32
2022/10/26 09:03:45;;;;;;;10.52;6.15;;;13.30;99.90;;;;;;4830111;29;89920;-32
2022/10/26 09:06:40;;;;;;;7.28;6.15;;;13.30;99.90;;;;;;4824855;29;89800;-31
2022/10/26 09:09:23;;;;;;;13.13;5.55;;;13.40;99.90;;;;;;4824240;29;89615;-28
2022/10/26 09:12:09;;;;;;;9.73;6.25;;;13.50;99.90;;;;;;4824262;29;88512;-32
2022/10/26 09:14:54;;;;;;;6.90;4.60;;;13.70;99.90;;;;;;4803725;29;90619;-29
2022/10/26 09:17:56;;;;;;;6.18;4.95;;;13.90;99.90;;;;;;4823594;29;89555;-30
2022/10/26 09:20:40;;;;;;;6.13;5.15;;;14.10;99.90;;;;;;4824070;29;89611;-30
2022/10/26 09:23:17;;;;;;;8.93;4.68;;;14.30;99.90;;;;;;4824449;29;88390;-30
2022/10/26 09:25:48;;;;;;;4.75;4.30;;;14.40;99.90;;;;;;4814239;29;90340;-28
2022/10/26 09:28:17;;;;;;;5.88;5.18;;;14.60;99.90;;;;;;4823000;29;89453;-29
2022/10/26 09:30:46;;;;;;;4.72;4.25;;;14.70;99.90;;;;;;4823092;29;89884;-28
2022/10/26 09:33:16;;;;;;;7.55;5.40;;;14.80;99.90;;;;;;4824561;29;88107;-31
2022/10/26 09:35:56;;;;;;;5.78;4.15;;;14.90;99.90;;;;;;4822242;29;90301;-29
2022/10/26 09:38:38;;;;;;;7.03;4.55;;;15.00;99.90;;;;;;4823370;29;90764;-28
2022/10/26 09:41:17;;;;;;;8.50;4.93;;;15.10;99.90;;;;;;4823483;29;90434;-28
2022/10/26 09:44:12;;;;;;;5.30;4.00;;;15.30;99.90;;;;;;4813729;29;89475;-29
2022/10/26 09:46:59;;;;;;;8.50;4.20;;;15.40;99.90;;;;;;4812835;29;90315;-31
2022/10/26 09:49:47;;;;;;;4.40;4.00;;;15.40;99.90;;;;;;4823754;29;90107;-28
2022/10/26 09:52:13;;;;;;;5.60;4.80;;;15.50;99.90;;;;;;4823756;29;89368;-31
2022/10/26 09:54:39;;;;;;;6.45;4.00;;;15.50;99.90;;;;;;4828464;29;89414;-31
2022/10/26 09:57:07;;;;;;;3.95;3.63;;;15.60;99.90;;;;;;4823945;29;89730;-30
2022/10/26 09:59:37;;;;;;;12.68;5.47;;;15.60;99.90;;;;;;4823522;29;89634;-30
2022/10/26 10:02:35;;;;;;;5.88;4.38;;;15.60;99.90;;;;;;4822379;29;89089;-31
2022/10/26 10:05:15;;;;;;;4.03;3.65;;;15.70;99.90;;;;;;4822482;29;90102;-29
2022/10/26 10:07:41;;;;;;;5.25;3.72;;;15.70;99.90;;;;;;4822291;29;90217;-29
2022/10/26 10:10:15;;;;;;;7.55;4.18;;;15.70;99.90;;;;;;4823533;29;88812;-30
2022/10/26 10:12:41;;;;;;;6.55;4.38;;;15.70;99.90;;;;;;4823618;29;90031;-29
2022/10/26 10:15:25;;;;;;;4.60;3.25;;;15.70;99.90;;;;;;4823521;29;88733;-31
2022/10/26 10:17:54;;;;;;;4.75;4.20;;;15.80;99.90;;;;;;4823274;29;90629;-32
2022/10/26 10:20:29;;;;;;;6.10;4.03;;;15.80;99.90;;;;;;4823444;29;90092;-28
2022/10/26 10:23:02;;;;;;;4.07;3.33;;;15.90;99.90;;;;;;4824052;29;89243;-31
2022/10/26 10:25:36;;;;;;;5.47;4.45;;;15.90;99.90;;;;;;4824417;29;88646;-31
2022/10/26 10:28:21;;;;;;;4.10;3.20;;;16.00;99.90;;;;;;4823198;29;90306;-28
2022/10/26 10:30:58;;;;;;;4.25;3.85;;;16.00;99.90;;;;;;4822852;29;91347;-30
2022/10/26 10:33:40;;;;;;;4.65;3.42;;;16.10;99.90;;;;;;4823429;29;90646;-29
2022/10/26 10:36:18;;;;;;;4.88;3.13;;;16.20;99.90;;;;;;4823955;29;88746;-29
2022/10/26 10:38:46;;;;;;;5.93;4.15;;;16.20;99.90;;;;;;4823446;29;89551;-28
2022/10/26 10:41:19;;;;;;;6.75;4.13;;;16.30;99.90;;;;;;4823499;29;89996;-28
2022/10/26 10:44:06;;;;;;;7.70;4.15;;;16.30;99.90;;;;;;4823074;29;89910;-31
2022/10/26 10:46:32;;;;;;;8.53;3.60;;;16.40;99.90;;;;;;4824049;29;89379;-31
2022/10/26 10:49:04;;;;;;;4.78;3.55;;;16.40;99.90;;;;;;4822493;29;90292;-28
2022/10/26 10:51:37;;;;;;;7.18;4.38;;;16.50;99.90;;;;;;4823688;29;89800;-29
2022/10/26 10:54:04;;;;;;;8.07;3.65;;;16.50;99.90;;;;;;4823445;29;89671;-32
2022/10/26 10:56:37;;;;;;;4.83;3.27;;;16.60;99.90;;;;;;4823398;29;90879;-29
2022/10/26 10:59:14;;;;;;;5.93;3.45;;;16.70;99.90;;;;;;4822810;29;89750;-32
2022/10/26 11:01:54;;;;;;;9.63;3.97;;;16.80;99.90;;;;;;4823630;29;89489;-35
2022/10/26 11:04:45;;;;;;;7.63;3.75;;;17.00;99.90;;;;;;4822783;29;89890;-31
2022/10/26 11:07:14;;;;;;;15.40;3.70;;;17.20;99.90;;;;;;4822758;29;89852;-31
2022/10/26 11:09:41;;;;;;;;;;;17.50;99.90;;;;;;4822969;29;90340;-34
2022/10/26 11:12:14;;;;;;;6.47;3.58;;;17.50;99.90;;;;;;4824783;29;89014;-32
2022/10/26 11:14:50;;;;;;;3.65;3.35;;;17.60;99.90;;;;;;4824799;29;89526;-30
2022/10/26 11:17:26;;;;;;;11.90;4.00;;;17.80;99.90;;;;;;4826872;29;90201;-29
2022/10/26 11:20:02;;;;;;;4.70;4.15;;;17.80;99.90;;;;;;4825913;29;90757;-29
2022/10/26 11:22:34;;;;;;;4.93;4.43;;;17.80;99.90;;;;;;4825529;29;90378;-28
2022/10/26 11:25:24;;;;;;;8.65;3.45;;;17.80;99.90;;;;;;4809503;29;92417;-30
2022/10/26 11:27:54;;;;;;;4.28;3.22;;;17.90;99.90;;;;;;4812072;29;89622;-33
2022/10/26 11:30:24;;;;;;;6.50;4.38;;;18.00;99.90;;;;;;4825740;29;89971;-32
2022/10/26 11:32:55;;;;;;;5.40;3.70;;;18.10;99.90;;;;;;4826274;29;89542;-31
2022/10/26 11:35:20;;;;;;;6.30;3.40;;;18.20;99.90;;;;;;4825528;29;90685;-34
2022/10/26 11:38:11;;;;;;;3.67;2.85;;;18.30;99.90;;;;;;4826061;29;88608;-29
2022/10/26 11:40:45;;;;;;;5.95;3.75;;;18.40;99.90;;;;;;4826396;29;90356;-31
2022/10/26 11:43:23;;;;;;;9.48;4.15;;;18.50;99.90;;;;;;4825363;29;89594;-33
2022/10/26 11:46:36;;;;;;;5.43;4.13;;;18.60;99.90;;;;;;4826104;29;89236;-32
2022/10/26 11:49:52;;;;;;;4.53;3.70;;;18.60;99.90;;;;;;4821439;29;90572;-29
2022/10/26 11:52:25;;;;;;;6.38;4.50;;;18.60;99.90;;;;;;4786240;29;90186;-30
2022/10/26 11:55:03;;;;;;;3.30;3.00;;;18.60;99.90;;;;;;4785563;29;89799;-30
2022/10/26 11:57:34;;;;;;;6.57;4.47;;;18.60;99.90;;;;;;4813087;29;89363;-30
2022/10/26 12:00:17;;;;;;;4.15;3.72;;;18.70;99.90;;;;;;4825284;29;88685;-30
2022/10/26 12:02:48;;;;;;;13.02;4.47;;;18.70;99.90;;;;;;4825545;29;91042;-30
2022/10/26 12:05:26;;;;;;;7.97;4.53;;;18.70;99.90;;;;;;4825693;29;90196;-33
2022/10/26 12:07:56;;;;;;;5.30;3.28;;;18.80;99.90;;;;;;4825550;29;91273;-31
2022/10/26 12:10:29;;;;;;;6.13;4.00;;;18.90;99.90;;;;;;4825750;29;88375;-33
2022/10/26 12:13:16;;;;;;;12.70;4.43;;;18.90;99.90;;;;;;4825020;29;90226;-29
2022/10/26 12:15:46;;;;;;;4.03;3.57;;;18.90;99.90;;;;;;4824616;29;90824;-30
2022/10/26 12:18:15;;;;;;;4.00;3.63;;;18.90;99.90;;;;;;4825596;29;90636;-33
2022/10/26 12:21:01;;;;;;;7.38;3.92;;;18.90;99.90;;;;;;4825093;29;90613;-30
2022/10/26 12:23:38;;;;;;;8.98;4.25;;;19.00;99.90;;;;;;4818634;29;89903;-31
2022/10/26 12:26:22;;;;;;;5.25;3.80;;;19.00;99.90;;;;;;4823310;29;88708;-30
2022/10/26 12:29:08;;;;;;;4.47;4.18;;;19.10;99.90;;;;;;4824264;29;89802;-33
2022/10/26 12:31:37;;;;;;;7.95;5.00;;;19.10;99.90;;;;;;4825154;29;89578;-32
2022/10/26 12:34:14;;;;;;;6.10;4.30;;;18.90;99.90;;;;;;4825018;29;90116;-28
2022/10/26 12:36:54;;;;;;;7.88;4.50;;;18.70;99.90;;;;;;4823918;29;90419;-33
2022/10/26 12:39:36;;;;;;;6.40;4.13;;;18.60;99.90;;;;;;4824815;29;89894;-32
2022/10/26 12:42:04;;;;;;;8.43;3.60;;;18.60;99.90;;;;;;4824625;29;90307;-32
2022/10/26 12:44:34;;;;;;;;;;;18.60;99.90;;;;;;4825612;29;90153;-30
2022/10/26 12:47:00;;;;;;;4.80;3.42;;;18.50;99.90;;;;;;4826238;29;89690;-31
2022/10/26 12:49:57;;;;;;;6.93;4.38;;;18.60;99.90;;;;;;4823826;29;89560;-30
2022/10/26 12:52:48;;;;;;;5.30;3.85;;;18.70;99.90;;;;;;4824533;29;89413;-29
2022/10/26 12:55:42;;;;;;;7.38;4.50;;;18.90;99.90;;;;;;4824090;29;90396;-32
2022/10/26 12:58:38;;;;;;;7.72;4.60;;;19.00;99.90;;;;;;4821632;29;89486;-30
2022/10/26 13:01:25;;;;;;;9.50;5.00;;;19.10;99.90;;;;;;4824097;29;89601;-31
2022/10/26 13:04:27;;;;;;;5.97;4.07;;;19.10;99.90;;;;;;4824453;29;88661;-32
2022/10/26 13:07:19;;;;;;;12.65;5.40;;;19.10;99.90;;;;;;4823996;29;90479;-30